Time;durP1;ratioP1;P1;durP2;ratioP2;P2;SDS_P1;SDS_P2;PMS_P1;PMS_P2;Temp;Humidity;BMP_temperature;BMP_pressure;BME280_temperature;BME280_humidity;BME280_pressure;Samples;Min_cycle;Max_cycle;Signal;HPM_P1;HPM_P2
2022/09/29 00:01:14;;;;;;;9.48;3.15;;;20.60;87.50;;;;;;4944081;28;21749;-77
2022/09/29 00:03:43;;;;;;;10.93;3.75;;;20.60;87.30;;;;;;4943580;28;20225;-79
2022/09/29 00:06:14;;;;;;;7.72;3.03;;;20.60;87.20;;;;;;4957410;28;20307;-77
2022/09/29 00:08:42;;;;;;;5.18;2.63;;;20.60;87.00;;;;;;4954792;28;20198;-77
2022/09/29 00:11:12;;;;;;;7.20;3.20;;;20.60;86.90;;;;;;4948738;28;20258;-77
2022/09/29 00:13:41;;;;;;;10.32;2.95;;;20.60;86.80;;;;;;4941543;28;20197;-77
2022/09/29 00:16:11;;;;;;;6.40;2.97;;;20.70;86.80;;;;;;4954270;28;20226;-77
2022/09/29 00:18:40;;;;;;;8.10;3.50;;;20.70;86.80;;;;;;4945520;28;20211;-77
2022/09/29 00:21:13;;;;;;;9.32;3.03;;;20.70;86.80;;;;;;4946280;28;20285;-77
2022/09/29 00:23:41;;;;;;;8.70;3.47;;;20.80;86.70;;;;;;4950039;28;20286;-78
2022/09/29 00:26:12;;;;;;;10.32;4.90;;;20.80;86.60;;;;;;4950681;28;20323;-83
2022/09/29 00:28:42;;;;;;;14.93;4.22;;;20.80;87.00;;;;;;4954740;28;20253;-80
2022/09/29 00:31:12;;;;;;;14.80;4.28;;;20.70;87.90;;;;;;4950145;28;20566;-78
2022/09/29 00:33:40;;;;;;;16.98;5.05;;;20.70;88.10;;;;;;4957443;28;20613;-77
2022/09/29 00:36:12;;;;;;;11.10;4.32;;;20.70;88.20;;;;;;4954263;28;20606;-75
2022/09/29 00:38:41;;;;;;;11.87;4.90;;;20.70;88.20;;;;;;4955488;28;20229;-76
2022/09/29 00:41:16;;;;;;;10.17;4.83;;;20.70;88.20;;;;;;4957566;28;20663;-77
2022/09/29 00:43:51;;;;;;;12.80;5.18;;;20.60;88.10;;;;;;4956486;28;20198;-77
2022/09/29 00:46:36;;;;;;;11.85;5.18;;;20.60;88.30;;;;;;4957059;28;20296;-77
2022/09/29 00:49:13;;;;;;;11.70;4.07;;;20.60;88.30;;;;;;4949609;28;20273;-77
2022/09/29 00:51:45;;;;;;;13.73;4.33;;;20.50;88.10;;;;;;4953247;28;20297;-76
2022/09/29 00:54:15;;;;;;;10.98;4.32;;;20.60;88.40;;;;;;4954967;28;20233;-77
2022/09/29 00:56:45;;;;;;;11.30;4.50;;;20.50;88.70;;;;;;4959285;28;20194;-77
2022/09/29 00:59:18;;;;;;;11.50;4.68;;;20.40;88.60;;;;;;4962713;28;20221;-77
2022/09/29 01:01:48;;;;;;;9.90;4.63;;;20.40;88.60;;;;;;4951097;28;20202;-77
2022/09/29 01:04:19;;;;;;;11.52;5.20;;;20.40;88.60;;;;;;4944904;28;20656;-78
2022/09/29 01:06:50;;;;;;;10.40;4.57;;;20.40;88.60;;;;;;4956853;28;20221;-77
2022/09/29 01:09:21;;;;;;;9.97;5.03;;;20.40;88.70;;;;;;4951895;28;20187;-77
2022/09/29 01:11:51;;;;;;;9.73;4.60;;;20.30;88.70;;;;;;4955287;28;20273;-77
2022/09/29 01:14:20;;;;;;;14.17;4.97;;;20.30;88.80;;;;;;4963360;28;20655;-78
2022/09/29 01:16:49;;;;;;;8.00;4.33;;;20.30;88.80;;;;;;4952429;28;20861;-77
2022/09/29 01:19:33;;;;;;;7.60;4.83;;;20.30;89.00;;;;;;4949005;28;20228;-76
2022/09/29 01:22:11;;;;;;;13.30;4.63;;;20.20;89.00;;;;;;4953844;28;20226;-77
2022/09/29 01:24:58;;;;;;;11.87;4.73;;;20.20;89.00;;;;;;4952590;28;20222;-77
2022/09/29 01:28:10;;;;;;;12.77;4.77;;;20.20;89.20;;;;;;4942621;28;20304;-76
2022/09/29 01:31:05;;;;;;;9.93;4.53;;;20.20;89.30;;;;;;4951340;28;20455;-77
2022/09/29 01:33:43;;;;;;;13.70;4.90;;;20.20;89.30;;;;;;4953621;28;20194;-77
2022/09/29 01:36:21;;;;;;;9.67;4.30;;;20.10;89.10;;;;;;4948140;28;20277;-78
2022/09/29 01:39:00;;;;;;;11.50;4.63;;;20.10;89.30;;;;;;4955261;28;20217;-77
2022/09/29 01:41:38;;;;;;;7.80;3.83;;;20.10;89.30;;;;;;4950149;28;20222;-77
2022/09/29 01:44:13;;;;;;;12.37;4.40;;;20.10;89.60;;;;;;4948863;28;20633;-77
2022/09/29 01:46:47;;;;;;;10.37;4.80;;;20.00;89.90;;;;;;4952501;28;20241;-78
2022/09/29 01:49:17;;;;;;;12.83;4.73;;;20.00;89.90;;;;;;4954152;28;20285;-76
2022/09/29 01:51:53;;;;;;;13.90;4.67;;;20.00;89.90;;;;;;4952887;28;20281;-76
2022/09/29 01:54:25;;;;;;;8.60;4.37;;;19.90;90.00;;;;;;4947791;28;20226;-76
2022/09/29 01:57:00;;;;;;;8.37;3.77;;;19.90;90.20;;;;;;4964228;28;20191;-76
2022/09/29 01:59:33;;;;;;;7.80;4.17;;;19.80;90.20;;;;;;4956206;28;20657;-76
2022/09/29 02:02:09;;;;;;;8.23;4.20;;;19.80;90.20;;;;;;4947163;28;20273;-77
2022/09/29 02:04:41;;;;;;;11.77;5.00;;;19.80;90.10;;;;;;4954322;28;20280;-76
2022/09/29 02:07:18;;;;;;;8.10;4.20;;;19.70;90.10;;;;;;4954999;28;20301;-79
2022/09/29 02:09:49;;;;;;;10.63;4.93;;;19.70;90.00;;;;;;4953391;28;20248;-75
2022/09/29 02:12:23;;;;;;;8.53;4.60;;;19.70;90.00;;;;;;4956103;28;20991;-76
2022/09/29 02:14:53;;;;;;;9.00;4.20;;;19.70;90.10;;;;;;4957239;28;20221;-76
2022/09/29 02:17:26;;;;;;;6.80;3.37;;;19.60;90.00;;;;;;4946692;28;20671;-77
2022/09/29 02:19:55;;;;;;;10.23;3.83;;;19.60;90.00;;;;;;4950417;28;20191;-76
2022/09/29 02:22:23;;;;;;;9.53;4.30;;;19.60;90.00;;;;;;4958910;28;21684;-76
2022/09/29 02:24:55;;;;;;;11.33;4.80;;;19.60;90.00;;;;;;4957811;28;20194;-76
2022/09/29 02:27:24;;;;;;;11.50;5.07;;;19.60;90.00;;;;;;4951328;28;20246;-76
2022/09/29 02:29:52;;;;;;;7.23;4.07;;;19.60;90.00;;;;;;4954847;28;20193;-76
2022/09/29 02:32:22;;;;;;;10.27;5.23;;;19.50;90.00;;;;;;4956599;28;20237;-77
2022/09/29 02:34:54;;;;;;;7.07;4.40;;;19.50;90.00;;;;;;4948026;28;20201;-77
2022/09/29 02:37:39;;;;;;;10.73;4.43;;;19.40;90.10;;;;;;4953460;28;20199;-76
2022/09/29 02:40:30;;;;;;;10.43;4.57;;;19.40;90.10;;;;;;4958308;28;20269;-76
2022/09/29 02:43:20;;;;;;;8.33;4.30;;;19.40;90.10;;;;;;4954958;28;20242;-76
2022/09/29 02:45:59;;;;;;;6.53;3.80;;;19.40;90.10;;;;;;4956814;28;20257;-76
2022/09/29 02:48:50;;;;;;;8.23;4.93;;;19.30;90.00;;;;;;4949625;28;20225;-76
2022/09/29 02:51:23;;;;;;;8.33;4.30;;;19.30;90.10;;;;;;4948143;28;20809;-76
2022/09/29 02:54:04;;;;;;;8.53;4.27;;;19.30;90.20;;;;;;4952585;28;20280;-76
2022/09/29 02:56:43;;;;;;;9.60;4.80;;;19.20;90.20;;;;;;4946799;28;20233;-76
2022/09/29 02:59:16;;;;;;;14.13;4.37;;;19.20;90.20;;;;;;4948762;28;20221;-76
2022/09/29 03:01:50;;;;;;;9.47;4.57;;;19.10;90.20;;;;;;4945840;28;20194;-76
2022/09/29 03:04:22;;;;;;;9.77;4.60;;;19.10;90.20;;;;;;4955091;28;20242;-76
2022/09/29 03:06:51;;;;;;;10.03;3.90;;;19.10;90.60;;;;;;4952037;28;20254;-76
2022/09/29 03:09:19;;;;;;;9.57;4.13;;;19.10;90.20;;;;;;4947086;28;20282;-76
2022/09/29 03:11:47;;;;;;;10.37;4.57;;;19.10;90.20;;;;;;4947899;28;20198;-76
2022/09/29 03:14:16;;;;;;;7.83;4.27;;;19.00;90.20;;;;;;4948823;28;20586;-76
2022/09/29 03:16:44;;;;;;;10.43;4.20;;;19.00;90.20;;;;;;4962254;28;20223;-76
2022/09/29 03:19:12;;;;;;;10.10;4.43;;;19.00;90.30;;;;;;4949618;28;20209;-77
2022/09/29 03:21:42;;;;;;;9.03;4.47;;;18.90;90.30;;;;;;4950146;28;20247;-78
2022/09/29 03:24:10;;;;;;;7.60;4.40;;;18.90;90.30;;;;;;4951642;28;20206;-77
2022/09/29 03:26:39;;;;;;;7.10;4.30;;;18.90;90.30;;;;;;4948471;28;20277;-76
2022/09/29 03:29:07;;;;;;;9.00;4.30;;;18.90;90.30;;;;;;4959760;28;20749;-76
2022/09/29 03:31:35;;;;;;;7.53;4.37;;;18.80;90.30;;;;;;4953465;28;20190;-76
2022/09/29 03:34:04;;;;;;;8.60;4.40;;;18.80;90.20;;;;;;4958899;28;20191;-76
2022/09/29 03:36:32;;;;;;;11.07;4.37;;;18.70;90.20;;;;;;4952320;28;20214;-76
2022/09/29 03:39:02;;;;;;;8.43;4.70;;;18.70;90.20;;;;;;4954978;28;20202;-76
2022/09/29 03:41:30;;;;;;;11.77;4.97;;;18.70;90.20;;;;;;4948004;28;20190;-76
2022/09/29 03:43:58;;;;;;;7.83;4.30;;;18.70;90.20;;;;;;4952761;28;20710;-76
2022/09/29 03:46:27;;;;;;;7.60;4.27;;;18.60;90.20;;;;;;4956974;28;20206;-76
2022/09/29 03:48:55;;;;;;;6.43;3.60;;;18.60;90.20;;;;;;4947918;28;20578;-76
2022/09/29 03:51:23;;;;;;;8.47;4.30;;;18.60;90.20;;;;;;4944755;28;20222;-77
2022/09/29 03:53:52;;;;;;;9.90;4.27;;;18.60;90.20;;;;;;4958370;28;20538;-76
2022/09/29 03:56:21;;;;;;;7.57;3.77;;;18.50;90.30;;;;;;4956189;28;20252;-76
2022/09/29 03:58:50;;;;;;;7.10;3.80;;;18.50;90.30;;;;;;4950133;28;20190;-76
2022/09/29 04:01:18;;;;;;;10.83;4.30;;;18.50;90.30;;;;;;4949779;28;20283;-76
2022/09/29 04:03:47;;;;;;;8.47;4.17;;;18.40;90.30;;;;;;4947331;28;20298;-76
2022/09/29 04:06:15;;;;;;;13.00;5.03;;;18.40;90.30;;;;;;4950477;28;20194;-76
2022/09/29 04:08:43;;;;;;;7.00;4.50;;;18.30;90.30;;;;;;4951770;28;20663;-76
2022/09/29 04:11:12;;;;;;;8.53;4.73;;;18.40;90.30;;;;;;4949891;28;20198;-76
2022/09/29 04:13:41;;;;;;;12.20;4.27;;;18.30;90.40;;;;;;4952519;28;20238;-76
2022/09/29 04:16:10;;;;;;;7.87;3.97;;;18.30;90.40;;;;;;4959532;28;20313;-79
2022/09/29 04:18:38;;;;;;;7.63;4.57;;;18.30;90.40;;;;;;4971309;28;20666;-76
2022/09/29 04:21:07;;;;;;;9.83;4.60;;;18.20;90.40;;;;;;4974034;28;20221;-76
2022/09/29 04:23:37;;;;;;;9.93;4.87;;;18.20;90.40;;;;;;4962725;28;20256;-75
2022/09/29 04:26:05;;;;;;;9.93;4.93;;;18.20;90.40;;;;;;4977775;28;20193;-76
2022/09/29 04:28:35;;;;;;;12.53;5.20;;;18.20;90.40;;;;;;4973313;28;20640;-76
2022/09/29 04:31:06;;;;;;;9.07;4.83;;;18.20;90.50;;;;;;4970415;28;20228;-76
2022/09/29 04:33:34;;;;;;;10.73;4.70;;;18.20;90.50;;;;;;4977173;28;20204;-76
2022/09/29 04:36:03;;;;;;;11.83;4.73;;;18.20;90.60;;;;;;4969261;28;20202;-76
2022/09/29 04:38:31;;;;;;;11.40;4.60;;;18.20;90.60;;;;;;4973571;28;20225;-76
2022/09/29 04:40:59;;;;;;;6.83;4.07;;;18.20;90.60;;;;;;4973984;28;20248;-76
2022/09/29 04:43:28;;;;;;;9.87;4.63;;;18.20;90.70;;;;;;4967744;28;20562;-76
2022/09/29 04:46:03;;;;;;;7.10;4.50;;;18.20;90.80;;;;;;4977654;28;20225;-76
2022/09/29 04:48:32;;;;;;;9.57;4.37;;;18.20;90.80;;;;;;4965965;28;20300;-76
2022/09/29 04:51:03;;;;;;;10.23;4.67;;;18.20;90.90;;;;;;4964304;28;20222;-76
2022/09/29 04:53:32;;;;;;;7.17;4.73;;;18.20;91.10;;;;;;4972913;28;20245;-77
2022/09/29 04:56:05;;;;;;;8.87;4.67;;;18.20;91.10;;;;;;4968470;28;20257;-77
2022/09/29 04:58:34;;;;;;;7.30;5.20;;;18.20;91.10;;;;;;4961844;28;20233;-76
2022/09/29 05:01:11;;;;;;;13.90;4.90;;;18.20;91.10;;;;;;4978670;28;20225;-76
2022/09/29 05:03:42;;;;;;;10.37;4.57;;;18.30;91.10;;;;;;4973925;28;20594;-77
2022/09/29 05:06:10;;;;;;;11.20;4.63;;;18.30;91.10;;;;;;4979160;28;20189;-78
2022/09/29 05:08:38;;;;;;;7.23;4.30;;;18.30;91.20;;;;;;4968341;28;20261;-76
2022/09/29 05:11:08;;;;;;;13.23;4.40;;;18.40;91.20;;;;;;4986888;28;20212;-77
2022/09/29 05:13:37;;;;;;;7.80;4.43;;;18.50;91.20;;;;;;4977940;28;20202;-76
2022/09/29 05:16:05;;;;;;;10.90;5.17;;;18.50;91.20;;;;;;4981297;28;20213;-76
2022/09/29 05:18:34;;;;;;;10.30;4.20;;;18.50;91.20;;;;;;4981252;28;20251;-76
2022/09/29 05:21:06;;;;;;;7.33;4.37;;;18.60;91.10;;;;;;4985886;28;20225;-75
2022/09/29 05:23:54;;;;;;;7.50;4.23;;;18.60;91.10;;;;;;4972062;28;20200;-75
2022/09/29 05:26:22;;;;;;;9.80;4.80;;;18.60;91.00;;;;;;4976423;28;20225;-76
2022/09/29 05:28:51;;;;;;;9.60;4.30;;;18.70;91.00;;;;;;4975509;28;20751;-77
2022/09/29 05:31:19;;;;;;;9.50;4.27;;;18.70;91.10;;;;;;4986333;28;20197;-76
2022/09/29 05:33:47;;;;;;;8.27;4.50;;;18.70;91.00;;;;;;4980502;28;20190;-76
2022/09/29 05:36:17;;;;;;;8.60;4.30;;;18.70;91.00;;;;;;4979137;28;20194;-76
2022/09/29 05:38:45;;;;;;;9.50;4.50;;;18.70;91.00;;;;;;4974278;28;20633;-77
2022/09/29 05:41:15;;;;;;;10.70;4.50;;;18.70;91.30;;;;;;4974354;28;20225;-76
2022/09/29 05:43:43;;;;;;;8.00;3.87;;;18.70;90.90;;;;;;4985269;28;20208;-77
2022/09/29 05:46:11;;;;;;;6.83;4.07;;;18.70;90.90;;;;;;4987040;28;20725;-77
2022/09/29 05:48:40;;;;;;;7.83;4.17;;;18.70;90.90;;;;;;4976957;28;20307;-77
2022/09/29 05:51:11;;;;;;;11.27;4.50;;;18.80;90.90;;;;;;4970361;28;20680;-77
2022/09/29 05:53:41;;;;;;;7.20;4.10;;;18.80;90.90;;;;;;4988262;28;20220;-77
2022/09/29 05:56:12;;;;;;;8.67;4.30;;;18.80;91.00;;;;;;4982290;28;20236;-77
2022/09/29 05:58:41;;;;;;;6.13;3.87;;;18.90;90.90;;;;;;4982576;28;20229;-77
2022/09/29 06:01:12;;;;;;;7.93;4.80;;;18.90;90.90;;;;;;4976595;28;20205;-77
2022/09/29 06:03:41;;;;;;;7.30;4.60;;;18.90;91.00;;;;;;4972433;28;20198;-77
2022/09/29 06:06:11;;;;;;;10.03;4.80;;;19.00;91.00;;;;;;4984076;28;20228;-77
2022/09/29 06:08:41;;;;;;;8.27;4.40;;;19.00;90.90;;;;;;4974251;28;20260;-78
2022/09/29 06:11:14;;;;;;;7.83;5.07;;;19.00;90.80;;;;;;4972872;28;20248;-77
2022/09/29 06:13:44;;;;;;;8.50;4.40;;;19.10;90.80;;;;;;4970284;28;20201;-78
2022/09/29 06:16:13;;;;;;;6.73;4.30;;;19.20;90.80;;;;;;4976586;28;20653;-78
2022/09/29 06:18:41;;;;;;;8.23;4.00;;;19.30;90.80;;;;;;4973789;28;20674;-77
2022/09/29 06:21:12;;;;;;;6.20;3.63;;;19.40;90.80;;;;;;4974843;28;20225;-78
2022/09/29 06:23:41;;;;;;;5.17;3.40;;;19.40;90.80;;;;;;4975697;28;20256;-78
2022/09/29 06:26:12;;;;;;;8.13;3.57;;;19.50;90.70;;;;;;4977269;28;20208;-79
2022/09/29 06:28:40;;;;;;;8.00;3.57;;;19.60;90.60;;;;;;4975488;28;20617;-77
2022/09/29 06:31:11;;;;;;;10.53;4.10;;;19.70;90.60;;;;;;4983026;28;20232;-78
2022/09/29 06:33:40;;;;;;;7.10;4.07;;;19.80;90.50;;;;;;4979852;28;20244;-78
2022/09/29 06:39:00;;;;;;;7.27;3.73;;;20.00;90.30;;;;;;4973769;28;20194;-78
2022/09/29 06:41:28;;;;;;;6.57;3.63;;;20.10;90.20;;;;;;4974961;28;20634;-77
2022/09/29 06:43:57;;;;;;;7.63;3.88;;;20.20;90.10;;;;;;4978738;28;20293;-78
2022/09/29 06:46:26;;;;;;;8.27;4.37;;;20.30;90.10;;;;;;4977355;28;20189;-77
2022/09/29 06:48:55;;;;;;;10.95;4.32;;;20.40;90.00;;;;;;4982810;28;20264;-76
2022/09/29 06:51:25;;;;;;;6.40;3.70;;;20.50;90.00;;;;;;4983424;28;20227;-78
2022/09/29 06:54:09;;;;;;;9.13;4.15;;;20.60;89.80;;;;;;4974101;28;20597;-77
2022/09/29 06:56:40;;;;;;;6.65;3.63;;;20.70;89.60;;;;;;4975869;28;20281;-79
2022/09/29 06:59:09;;;;;;;8.80;4.13;;;20.80;89.50;;;;;;4980551;28;20285;-77
2022/09/29 07:01:37;;;;;;;8.85;3.75;;;20.90;89.20;;;;;;4970770;28;20249;-77
2022/09/29 07:04:06;;;;;;;7.75;4.15;;;20.90;89.00;;;;;;4972637;28;20232;-77
2022/09/29 07:06:34;;;;;;;6.53;3.72;;;21.00;88.90;;;;;;4967753;28;20234;-77
2022/09/29 07:09:07;;;;;;;12.45;4.03;;;21.10;88.60;;;;;;4961015;28;20625;-78
2022/09/29 07:11:39;;;;;;;9.05;3.50;;;21.10;88.40;;;;;;4965403;28;20198;-77
2022/09/29 07:14:07;;;;;;;7.53;3.72;;;21.20;88.40;;;;;;4972408;28;20197;-77
2022/09/29 07:16:36;;;;;;;8.30;4.03;;;21.20;88.50;;;;;;4962911;28;20218;-77
2022/09/29 07:19:04;;;;;;;8.77;3.30;;;21.30;88.00;;;;;;4969522;28;20205;-76
2022/09/29 07:21:32;;;;;;;4.65;3.10;;;21.30;87.70;;;;;;4974725;28;20190;-77
2022/09/29 07:24:01;;;;;;;10.23;3.45;;;21.40;87.70;;;;;;4974939;28;20256;-77
2022/09/29 07:26:30;;;;;;;7.82;3.40;;;21.40;87.20;;;;;;4972055;28;20229;-76
2022/09/29 07:29:00;;;;;;;9.30;3.92;;;21.40;87.00;;;;;;4969032;28;20229;-76
2022/09/29 07:31:28;;;;;;;7.20;3.58;;;21.50;86.80;;;;;;4972345;28;20189;-77
2022/09/29 07:34:00;;;;;;;8.30;2.80;;;21.50;86.70;;;;;;4974054;28;20252;-78
2022/09/29 07:36:28;;;;;;;10.82;3.38;;;21.50;86.50;;;;;;4968454;28;20284;-79
2022/09/29 07:38:56;;;;;;;7.30;3.33;;;21.60;86.50;;;;;;4963837;28;20295;-77
2022/09/29 07:41:26;;;;;;;7.05;3.10;;;21.60;86.20;;;;;;4967303;28;20275;-77
2022/09/29 07:43:55;;;;;;;10.23;3.50;;;21.70;86.20;;;;;;4969369;28;20198;-77
2022/09/29 07:46:25;;;;;;;8.48;3.28;;;21.70;86.00;;;;;;4971355;28;20233;-76
2022/09/29 07:48:53;;;;;;;11.38;3.10;;;21.80;85.90;;;;;;4962094;28;20225;-76
2022/09/29 07:51:22;;;;;;;10.02;3.08;;;21.80;85.60;;;;;;4968936;28;20193;-77
2022/09/29 07:53:50;;;;;;;6.00;3.22;;;21.90;85.30;;;;;;4985098;28;20285;-76
2022/09/29 07:56:21;;;;;;;8.00;3.25;;;21.90;85.20;;;;;;4972823;28;20201;-77
2022/09/29 07:58:50;;;;;;;5.70;2.75;;;22.00;85.00;;;;;;4969169;28;20658;-77
2022/09/29 08:01:19;;;;;;;9.23;3.47;;;22.10;85.00;;;;;;4959141;28;20265;-77
2022/09/29 08:03:52;;;;;;;8.60;2.90;;;22.20;84.70;;;;;;4960995;28;20281;-77
2022/09/29 08:06:21;;;;;;;7.50;3.25;;;22.20;84.00;;;;;;4971373;28;20197;-78
2022/09/29 08:08:50;;;;;;;7.72;2.75;;;22.20;83.30;;;;;;4968437;28;20556;-77
2022/09/29 08:11:31;;;;;;;9.68;3.17;;;22.20;83.20;;;;;;4968166;28;20197;-77
2022/09/29 08:14:01;;;;;;;10.32;2.92;;;22.30;83.00;;;;;;4970754;28;20204;-77
2022/09/29 08:16:30;;;;;;;6.70;2.92;;;22.40;83.00;;;;;;4968681;28;20226;-76
2022/09/29 08:19:00;;;;;;;6.07;3.28;;;22.40;82.00;;;;;;4972817;28;20196;-76
2022/09/29 08:21:30;;;;;;;4.93;2.63;;;22.50;81.10;;;;;;4974318;28;20202;-76
2022/09/29 08:24:01;;;;;;;7.10;2.45;;;22.50;81.20;;;;;;4974488;28;20217;-77
2022/09/29 08:26:31;;;;;;;9.13;3.17;;;22.60;81.60;;;;;;4976767;28;20218;-76
2022/09/29 08:29:10;;;;;;;5.35;2.55;;;22.70;80.60;;;;;;4959011;28;20281;-77
2022/09/29 08:31:43;;;;;;;6.00;2.47;;;22.80;80.70;;;;;;4971348;28;20209;-77
2022/09/29 08:34:14;;;;;;;8.27;2.90;;;22.90;80.50;;;;;;4973360;28;20205;-78
2022/09/29 08:36:42;;;;;;;7.82;3.05;;;23.00;80.40;;;;;;4972484;28;20280;-79
2022/09/29 08:39:12;;;;;;;5.30;2.75;;;23.10;80.10;;;;;;4961336;28;20203;-78
2022/09/29 08:41:51;;;;;;;8.15;3.22;;;23.10;80.10;;;;;;4969102;28;20718;-78
2022/09/29 08:44:27;;;;;;;12.43;3.10;;;23.20;78.80;;;;;;4965767;28;20202;-78
2022/09/29 08:47:14;;;;;;;6.13;2.75;;;23.30;78.10;;;;;;4960839;28;20215;-78
2022/09/29 08:49:49;;;;;;;7.63;2.70;;;23.30;77.70;;;;;;4974552;28;20218;-78
2022/09/29 08:52:22;;;;;;;6.90;2.92;;;23.40;78.00;;;;;;4973656;28;20212;-78
2022/09/29 08:54:57;;;;;;;6.20;2.97;;;23.50;78.30;;;;;;4968159;28;20616;-79
2022/09/29 08:57:26;;;;;;;8.95;2.75;;;23.60;78.00;;;;;;4972568;28;20194;-78
2022/09/29 08:59:56;;;;;;;9.15;2.80;;;23.70;78.00;;;;;;4971780;28;20680;-78
2022/09/29 09:02:58;;;;;;;5.63;2.38;;;23.70;77.80;;;;;;4975008;28;20256;-78
2022/09/29 09:05:41;;;;;;;7.30;3.15;;;23.80;77.80;;;;;;4974829;28;20205;-78
2022/09/29 09:08:22;;;;;;;7.35;2.92;;;23.90;78.00;;;;;;4971898;28;20260;-80
2022/09/29 09:11:01;;;;;;;12.18;2.90;;;24.00;77.70;;;;;;4973771;28;20317;-79
2022/09/29 09:13:48;;;;;;;6.22;2.58;;;24.10;76.90;;;;;;4970929;28;20194;-79
2022/09/29 09:16:28;;;;;;;4.65;2.30;;;24.20;76.70;;;;;;4961539;28;20234;-80
2022/09/29 09:19:12;;;;;;;8.98;1.98;;;24.30;76.70;;;;;;4976269;28;20566;-80
2022/09/29 09:21:44;;;;;;;12.32;2.83;;;24.40;76.50;;;;;;4963691;28;20661;-79
2022/09/29 09:24:17;;;;;;;7.43;2.53;;;24.40;75.40;;;;;;4971913;28;20202;-78
2022/09/29 09:26:52;;;;;;;8.13;2.72;;;24.50;75.50;;;;;;4976455;28;20345;-79
2022/09/29 09:29:28;;;;;;;9.18;2.28;;;24.60;75.40;;;;;;4970906;28;20198;-79
2022/09/29 09:32:06;;;;;;;6.25;2.92;;;24.70;75.10;;;;;;4975926;28;20210;-79
2022/09/29 09:34:41;;;;;;;6.57;2.17;;;24.80;73.80;;;;;;4973928;28;20201;-79
2022/09/29 09:37:19;;;;;;;7.63;2.30;;;24.80;72.90;;;;;;4968742;28;20257;-79
2022/09/29 09:39:54;;;;;;;8.30;2.70;;;24.90;72.60;;;;;;4970618;28;20616;-79
2022/09/29 09:42:27;;;;;;;7.13;2.72;;;25.00;73.00;;;;;;4975965;28;20213;-80
2022/09/29 09:45:00;;;;;;;7.57;2.20;;;25.10;73.10;;;;;;4972214;28;20265;-79
2022/09/29 09:47:31;;;;;;;9.18;2.20;;;25.20;73.30;;;;;;4965263;28;20193;-80
2022/09/29 09:50:02;;;;;;;5.50;1.90;;;25.20;73.30;;;;;;4969115;28;20194;-78
2022/09/29 09:52:40;;;;;;;5.43;1.88;;;25.30;72.50;;;;;;4968595;28;20709;-78
2022/09/29 09:55:15;;;;;;;4.05;1.88;;;25.40;72.10;;;;;;4971218;28;20216;-80
2022/09/29 09:58:01;;;;;;;6.05;1.58;;;25.40;72.00;;;;;;4964670;28;20198;-79
2022/09/29 10:00:35;;;;;;;7.30;2.38;;;25.50;72.10;;;;;;4971752;28;20713;-78
2022/09/29 10:03:07;;;;;;;7.30;2.30;;;25.60;72.00;;;;;;4961207;28;20200;-79
2022/09/29 10:05:37;;;;;;;2.55;1.70;;;25.70;71.60;;;;;;4967552;28;20252;-80
2022/09/29 10:08:12;;;;;;;4.25;1.80;;;25.80;71.60;;;;;;4967836;28;20784;-80
2022/09/29 10:10:42;;;;;;;4.13;2.10;;;25.80;71.30;;;;;;4969142;28;20257;-78
2022/09/29 10:13:26;;;;;;;9.60;2.00;;;25.90;71.30;;;;;;4964264;28;20280;-78
2022/09/29 10:15:58;;;;;;;8.43;2.22;;;25.90;70.90;;;;;;4961916;28;20238;-81
2022/09/29 10:18:32;;;;;;;8.95;2.15;;;26.00;70.50;;;;;;4964842;28;20728;-79
2022/09/29 10:21:00;;;;;;;5.15;2.22;;;26.00;70.30;;;;;;4971689;28;20193;-79
2022/09/29 10:23:34;;;;;;;7.32;2.15;;;26.00;70.00;;;;;;4966917;28;20225;-80
2022/09/29 10:26:09;;;;;;;6.90;2.28;;;26.10;68.60;;;;;;4971389;28;20272;-81
2022/09/29 10:28:42;;;;;;;7.90;2.65;;;26.10;68.70;;;;;;4960657;28;20193;-76
2022/09/29 10:31:22;;;;;;;10.65;1.73;;;26.20;67.90;;;;;;4975864;28;20213;-83
2022/09/29 10:33:54;;;;;;;6.45;1.77;;;26.20;67.20;;;;;;4969889;28;20220;-79
2022/09/29 10:36:25;;;;;;;5.47;1.90;;;26.20;67.10;;;;;;4972062;28;20195;-81
2022/09/29 10:38:55;;;;;;;5.90;1.95;;;26.30;66.80;;;;;;4963341;28;20642;-80
2022/09/29 10:41:30;;;;;;;3.65;1.83;;;26.30;66.10;;;;;;4974451;28;20200;-80
2022/09/29 10:44:20;;;;;;;6.55;2.10;;;26.30;66.60;;;;;;4975959;28;20194;-79
2022/09/29 10:46:52;;;;;;;2.88;1.55;;;26.40;66.70;;;;;;4968727;28;20198;-79
2022/09/29 10:49:23;;;;;;;4.45;1.55;;;26.40;66.40;;;;;;4971259;28;20198;-80
2022/09/29 10:51:59;;;;;;;4.97;1.83;;;26.50;65.90;;;;;;4971387;28;20233;-79
2022/09/29 10:54:32;;;;;;;6.05;2.10;;;26.50;65.50;;;;;;4976482;28;20221;-81
2022/09/29 10:57:11;;;;;;;3.67;1.75;;;26.50;65.70;;;;;;4972668;28;20202;-80
2022/09/29 10:59:51;;;;;;;4.85;1.98;;;26.50;65.70;;;;;;4978448;28;20651;-81
2022/09/29 11:02:27;;;;;;;3.40;1.33;;;26.60;66.00;;;;;;4966383;28;20757;-79
2022/09/29 11:04:58;;;;;;;4.07;1.65;;;26.60;65.30;;;;;;4968704;28;20295;-80
2022/09/29 11:07:28;;;;;;;6.30;1.70;;;26.60;65.50;;;;;;4976308;28;20677;-80
2022/09/29 11:09:58;;;;;;;8.77;1.95;;;26.60;65.50;;;;;;4972229;28;20252;-80
2022/09/29 11:12:33;;;;;;;5.00;1.90;;;26.70;65.70;;;;;;4976839;28;20265;-80
2022/09/29 11:15:03;;;;;;;4.25;2.20;;;26.80;66.00;;;;;;4973513;28;20189;-80
2022/09/29 11:17:37;;;;;;;4.13;1.77;;;26.80;65.90;;;;;;4966330;28;20574;-79
2022/09/29 11:20:18;;;;;;;7.07;1.88;;;26.80;65.50;;;;;;4965472;28;20264;-82
2022/09/29 11:23:23;;;;;;;4.47;1.83;;;26.80;64.90;;;;;;4962167;28;20197;-78
2022/09/29 11:26:18;;;;;;;4.72;1.88;;;26.80;65.00;;;;;;4970783;28;20197;-81
2022/09/29 11:29:25;;;;;;;5.00;1.90;;;26.90;65.00;;;;;;4972373;28;20301;-78
2022/09/29 11:32:10;;;;;;;5.28;1.90;;;26.90;65.00;;;;;;4970365;28;20217;-81
2022/09/29 11:35:13;;;;;;;3.40;1.70;;;26.90;64.60;;;;;;4968786;28;20202;-80
2022/09/29 11:37:59;;;;;;;9.48;2.10;;;26.90;64.70;;;;;;4968990;28;20244;-79
2022/09/29 11:40:38;;;;;;;4.78;1.60;;;26.90;63.70;;;;;;4972323;28;20196;-80
2022/09/29 11:43:24;;;;;;;4.35;2.03;;;26.90;63.70;;;;;;4976561;28;20198;-79
2022/09/29 11:46:04;;;;;;;3.25;1.50;;;27.00;63.30;;;;;;4974051;28;20264;-78
2022/09/29 11:48:53;;;;;;;5.95;1.90;;;27.00;63.60;;;;;;4967496;28;20562;-77
2022/09/29 11:51:29;;;;;;;4.20;1.90;;;27.10;62.70;;;;;;4957020;28;20348;-79
2022/09/29 11:54:15;;;;;;;3.72;1.80;;;27.10;63.00;;;;;;4962728;28;20336;-80
2022/09/29 11:56:50;;;;;;;4.03;1.45;;;27.10;62.20;;;;;;4964616;28;20839;-79
2022/09/29 11:59:54;;;;;;;3.60;1.30;;;27.10;61.30;;;;;;4967338;28;20189;-79
2022/09/29 12:02:42;;;;;;;5.30;1.70;;;27.20;61.70;;;;;;4953995;28;20240;-79
2022/09/29 12:05:19;;;;;;;2.65;1.50;;;27.20;61.10;;;;;;4971361;28;20194;-81
2022/09/29 12:08:00;;;;;;;5.35;2.17;;;27.20;61.60;;;;;;4966448;28;20570;-78
2022/09/29 12:10:51;;;;;;;7.22;1.90;;;27.20;61.60;;;;;;4974687;28;20225;-80
2022/09/29 12:13:26;;;;;;;6.70;2.00;;;27.30;62.20;;;;;;4967723;28;20694;-79
2022/09/29 12:16:00;;;;;;;3.13;1.70;;;27.30;62.50;;;;;;4972101;28;20240;-80
2022/09/29 12:18:34;;;;;;;4.15;1.60;;;27.30;62.20;;;;;;4960471;28;20222;-81
2022/09/29 12:21:04;;;;;;;2.45;1.40;;;27.30;61.40;;;;;;4967749;28;20591;-79
2022/09/29 12:23:36;;;;;;;4.85;1.77;;;27.30;61.00;;;;;;4972789;28;20201;-80
2022/09/29 12:26:09;;;;;;;3.50;1.67;;;27.40;61.20;;;;;;4972567;28;20228;-79
2022/09/29 12:28:44;;;;;;;3.42;1.52;;;27.40;60.60;;;;;;4971542;28;20645;-80
2022/09/29 12:31:18;;;;;;;5.95;1.30;;;27.50;61.10;;;;;;4976731;28;20196;-78
2022/09/29 12:33:52;;;;;;;3.45;1.42;;;27.50;61.10;;;;;;4976901;28;20705;-81
2022/09/29 12:36:44;;;;;;;3.45;1.20;;;27.60;59.70;;;;;;4971801;28;20221;-80
2022/09/29 12:39:38;;;;;;;2.45;1.20;;;27.60;59.30;;;;;;4971277;28;21083;-82
2022/09/29 12:42:35;;;;;;;4.15;1.38;;;27.70;58.20;;;;;;4971739;28;20507;-79
2022/09/29 12:45:11;;;;;;;3.10;1.00;;;27.70;57.50;;;;;;4966491;28;20202;-82
2022/09/29 12:47:50;;;;;;;4.28;1.50;;;27.70;57.50;;;;;;4969233;28;20205;-80
2022/09/29 12:50:22;;;;;;;6.55;1.63;;;27.70;57.20;;;;;;4975056;28;20226;-81
2022/09/29 12:52:55;;;;;;;2.95;1.00;;;27.70;57.60;;;;;;4970127;28;20353;-80
2022/09/29 12:55:30;;;;;;;5.75;1.10;;;27.70;57.60;;;;;;4966139;28;20194;-81
2022/09/29 12:58:04;;;;;;;5.15;1.02;;;27.70;57.10;;;;;;4969467;28;20212;-80
2022/09/29 13:00:35;;;;;;;1.67;1.00;;;27.70;56.50;;;;;;4972386;28;20201;-83
2022/09/29 13:03:49;;;;;;;1.83;0.90;;;27.60;56.00;;;;;;4970221;28;20189;-78
2022/09/29 13:06:52;;;;;;;3.08;1.00;;;27.60;55.90;;;;;;4943854;28;20198;-80
2022/09/29 13:09:57;;;;;;;3.40;1.10;;;27.50;55.70;;;;;;4961589;28;20198;-81
2022/09/29 13:12:51;;;;;;;3.55;1.05;;;27.50;55.50;;;;;;4954599;28;20646;-79
2022/09/29 13:15:31;;;;;;;7.85;1.30;;;27.60;55.30;;;;;;4958041;28;20349;-81
2022/09/29 13:18:30;;;;;;;2.53;0.90;;;27.60;54.80;;;;;;4968519;28;20198;-78
2022/09/29 13:21:07;;;;;;;2.53;1.15;;;27.90;55.50;;;;;;4967222;28;20280;-80
2022/09/29 13:23:52;;;;;;;3.33;1.10;;;28.10;54.20;;;;;;4966996;28;20185;-79